sensor_id;sensor_type;location;lat;lon;timestamp;temperature;humidity
23079;DHT22;11707;50.830;4.364;2023-07-28T00:00:04;17.80;99.90
23079;DHT22;11707;50.830;4.364;2023-07-28T00:02:30;17.70;99.90
23079;DHT22;11707;50.830;4.364;2023-07-28T00:04:55;17.80;99.90
23079;DHT22;11707;50.830;4.364;2023-07-28T00:07:21;17.70;99.90
23079;DHT22;11707;50.830;4.364;2023-07-28T00:09:47;17.80;99.90
23079;DHT22;11707;50.830;4.364;2023-07-28T00:12:12;17.70;99.90
23079;DHT22;11707;50.830;4.364;2023-07-28T00:14:38;17.80;99.90
23079;DHT22;11707;50.830;4.364;2023-07-28T00:17:06;17.70;99.90
23079;DHT22;11707;50.830;4.364;2023-07-28T00:19:34;17.80;99.90
23079;DHT22;11707;50.830;4.364;2023-07-28T00:22:02;17.80;99.90
23079;DHT22;11707;50.830;4.364;2023-07-28T00:24:27;17.80;99.90
23079;DHT22;11707;50.830;4.364;2023-07-28T00:26:53;17.70;99.90
23079;DHT22;11707;50.830;4.364;2023-07-28T00:29:19;17.70;99.90
23079;DHT22;11707;50.830;4.364;2023-07-28T00:31:47;17.70;99.90
23079;DHT22;11707;50.830;4.364;2023-07-28T00:34:15;17.70;99.90
23079;DHT22;11707;50.830;4.364;2023-07-28T00:36:40;17.70;99.90
23079;DHT22;11707;50.830;4.364;2023-07-28T00:39:06;17.70;99.90
23079;DHT22;11707;50.830;4.364;2023-07-28T00:41:32;17.70;99.90
23079;DHT22;11707;50.830;4.364;2023-07-28T00:43:57;17.70;99.90
23079;DHT22;11707;50.830;4.364;2023-07-28T00:46:23;17.70;99.90
23079;DHT22;11707;50.830;4.364;2023-07-28T00:48:49;17.70;99.90
23079;DHT22;11707;50.830;4.364;2023-07-28T00:51:15;17.80;99.90
23079;DHT22;11707;50.830;4.364;2023-07-28T00:53:48;17.80;99.90
23079;DHT22;11707;50.830;4.364;2023-07-28T00:56:16;17.80;99.90
23079;DHT22;11707;50.830;4.364;2023-07-28T00:58:42;17.70;99.90
23079;DHT22;11707;50.830;4.364;2023-07-28T01:01:07;17.70;99.90
23079;DHT22;11707;50.830;4.364;2023-07-28T01:03:37;17.70;99.90
23079;DHT22;11707;50.830;4.364;2023-07-28T01:08:57;17.70;99.90
23079;DHT22;11707;50.830;4.364;2023-07-28T01:11:26;17.70;99.90
23079;DHT22;11707;50.830;4.364;2023-07-28T01:13:52;17.70;99.90
23079;DHT22;11707;50.830;4.364;2023-07-28T01:16:18;17.70;99.90
23079;DHT22;11707;50.830;4.364;2023-07-28T01:18:43;17.60;99.90
23079;DHT22;11707;50.830;4.364;2023-07-28T01:21:14;17.70;99.90
23079;DHT22;11707;50.830;4.364;2023-07-28T01:26:35;17.60;99.90
23079;DHT22;11707;50.830;4.364;2023-07-28T01:29:02;17.60;99.90
23079;DHT22;11707;50.830;4.364;2023-07-28T01:31:29;17.60;99.90
23079;DHT22;11707;50.830;4.364;2023-07-28T01:33:59;17.60;99.90
23079;DHT22;11707;50.830;4.364;2023-07-28T01:36:25;17.60;99.90
23079;DHT22;11707;50.830;4.364;2023-07-28T01:38:51;17.60;99.90
23079;DHT22;11707;50.830;4.364;2023-07-28T01:41:16;17.50;99.90
23079;DHT22;11707;50.830;4.364;2023-07-28T01:43:42;17.50;99.90
23079;DHT22;11707;50.830;4.364;2023-07-28T01:46:08;17.50;99.90
23079;DHT22;11707;50.830;4.364;2023-07-28T01:48:33;17.50;99.90
23079;DHT22;11707;50.830;4.364;2023-07-28T01:51:02;17.60;99.90
23079;DHT22;11707;50.830;4.364;2023-07-28T01:53:27;17.50;99.90
23079;DHT22;11707;50.830;4.364;2023-07-28T01:55:53;17.60;99.90
23079;DHT22;11707;50.830;4.364;2023-07-28T01:58:18;17.60;99.90
23079;DHT22;11707;50.830;4.364;2023-07-28T02:00:44;17.60;99.90
23079;DHT22;11707;50.830;4.364;2023-07-28T02:03:11;17.50;99.90
23079;DHT22;11707;50.830;4.364;2023-07-28T02:05:37;17.50;99.90
23079;DHT22;11707;50.830;4.364;2023-07-28T02:08:03;17.50;99.90
23079;DHT22;11707;50.830;4.364;2023-07-28T02:10:29;17.60;99.90
23079;DHT22;11707;50.830;4.364;2023-07-28T02:12:55;17.50;99.90
23079;DHT22;11707;50.830;4.364;2023-07-28T02:15:20;17.50;99.90
23079;DHT22;11707;50.830;4.364;2023-07-28T02:17:49;17.60;99.90
23079;DHT22;11707;50.830;4.364;2023-07-28T02:20:14;17.50;99.90
23079;DHT22;11707;50.830;4.364;2023-07-28T02:22:41;17.50;99.90
23079;DHT22;11707;50.830;4.364;2023-07-28T02:25:08;17.50;99.90
23079;DHT22;11707;50.830;4.364;2023-07-28T02:27:33;17.60;99.90
23079;DHT22;11707;50.830;4.364;2023-07-28T02:30:02;17.60;99.90
23079;DHT22;11707;50.830;4.364;2023-07-28T02:32:29;17.60;99.90
23079;DHT22;11707;50.830;4.364;2023-07-28T02:35:00;17.60;99.90
23079;DHT22;11707;50.830;4.364;2023-07-28T02:37:27;17.50;99.90
23079;DHT22;11707;50.830;4.364;2023-07-28T02:39:53;17.60;99.90
23079;DHT22;11707;50.830;4.364;2023-07-28T02:42:19;17.60;99.90
23079;DHT22;11707;50.830;4.364;2023-07-28T02:44:44;17.50;99.90
23079;DHT22;11707;50.830;4.364;2023-07-28T02:47:10;17.50;99.90
23079;DHT22;11707;50.830;4.364;2023-07-28T02:49:36;17.60;99.90
23079;DHT22;11707;50.830;4.364;2023-07-28T02:52:01;17.60;99.90
23079;DHT22;11707;50.830;4.364;2023-07-28T02:54:29;17.60;99.90
23079;DHT22;11707;50.830;4.364;2023-07-28T02:56:55;17.60;99.90
23079;DHT22;11707;50.830;4.364;2023-07-28T02:59:21;17.70;99.90
23079;DHT22;11707;50.830;4.364;2023-07-28T03:01:49;17.70;99.90
23079;DHT22;11707;50.830;4.364;2023-07-28T03:04:18;17.60;99.90
23079;DHT22;11707;50.830;4.364;2023-07-28T03:06:45;17.60;99.90
23079;DHT22;11707;50.830;4.364;2023-07-28T03:09:11;17.60;99.90
23079;DHT22;11707;50.830;4.364;2023-07-28T03:11:39;17.60;99.90
23079;DHT22;11707;50.830;4.364;2023-07-28T03:14:05;17.60;99.90
23079;DHT22;11707;50.830;4.364;2023-07-28T03:16:31;17.70;99.90
23079;DHT22;11707;50.830;4.364;2023-07-28T03:18:56;17.70;99.90
23079;DHT22;11707;50.830;4.364;2023-07-28T03:21:29;17.70;99.90
23079;DHT22;11707;50.830;4.364;2023-07-28T03:23:54;17.70;99.90
23079;DHT22;11707;50.830;4.364;2023-07-28T03:26:22;17.70;99.90
23079;DHT22;11707;50.830;4.364;2023-07-28T03:28:48;17.70;99.90
23079;DHT22;11707;50.830;4.364;2023-07-28T03:31:16;17.70;99.90
23079;DHT22;11707;50.830;4.364;2023-07-28T03:33:41;17.70;99.90
23079;DHT22;11707;50.830;4.364;2023-07-28T03:36:09;17.70;99.90
23079;DHT22;11707;50.830;4.364;2023-07-28T03:38:35;17.60;99.90
23079;DHT22;11707;50.830;4.364;2023-07-28T03:41:03;17.70;99.90
23079;DHT22;11707;50.830;4.364;2023-07-28T03:43:28;17.60;99.90
23079;DHT22;11707;50.830;4.364;2023-07-28T03:45:54;17.60;99.90
23079;DHT22;11707;50.830;4.364;2023-07-28T03:48:20;17.60;99.90
23079;DHT22;11707;50.830;4.364;2023-07-28T03:50:45;17.70;99.90
23079;DHT22;11707;50.830;4.364;2023-07-28T03:53:11;17.60;99.90
23079;DHT22;11707;50.830;4.364;2023-07-28T03:55:36;17.60;99.90
23079;DHT22;11707;50.830;4.364;2023-07-28T03:58:02;17.70;99.90
23079;DHT22;11707;50.830;4.364;2023-07-28T04:00:29;17.70;99.90
23079;DHT22;11707;50.830;4.364;2023-07-28T04:02:54;17.60;99.90
23079;DHT22;11707;50.830;4.364;2023-07-28T04:05:20;17.60;99.90
23079;DHT22;11707;50.830;4.364;2023-07-28T04:07:48;17.70;99.90
23079;DHT22;11707;50.830;4.364;2023-07-28T04:10:14;17.70;99.90
23079;DHT22;11707;50.830;4.364;2023-07-28T04:12:41;17.70;99.90
23079;DHT22;11707;50.830;4.364;2023-07-28T04:15:08;17.60;99.90
23079;DHT22;11707;50.830;4.364;2023-07-28T04:17:33;17.60;99.90
23079;DHT22;11707;50.830;4.364;2023-07-28T04:19:59;17.70;99.90
23079;DHT22;11707;50.830;4.364;2023-07-28T04:22:25;17.70;99.90
23079;DHT22;11707;50.830;4.364;2023-07-28T04:24:50;17.60;99.90
23079;DHT22;11707;50.830;4.364;2023-07-28T04:27:19;17.60;99.90
23079;DHT22;11707;50.830;4.364;2023-07-28T04:29:47;17.70;99.90
23079;DHT22;11707;50.830;4.364;2023-07-28T04:32:13;17.70;99.90
23079;DHT22;11707;50.830;4.364;2023-07-28T04:34:38;17.80;99.90
23079;DHT22;11707;50.830;4.364;2023-07-28T04:37:04;17.70;99.90
23079;DHT22;11707;50.830;4.364;2023-07-28T04:39:32;17.80;99.90
23079;DHT22;11707;50.830;4.364;2023-07-28T04:41:58;17.80;99.90
23079;DHT22;11707;50.830;4.364;2023-07-28T04:44:26;17.80;99.90
23079;DHT22;11707;50.830;4.364;2023-07-28T04:46:51;17.90;99.90
23079;DHT22;11707;50.830;4.364;2023-07-28T04:49:20;17.90;99.90
23079;DHT22;11707;50.830;4.364;2023-07-28T04:51:47;17.90;99.90
23079;DHT22;11707;50.830;4.364;2023-07-28T04:54:12;17.90;99.90
23079;DHT22;11707;50.830;4.364;2023-07-28T04:56:38;17.90;99.90
23079;DHT22;11707;50.830;4.364;2023-07-28T04:59:03;18.00;99.90
23079;DHT22;11707;50.830;4.364;2023-07-28T05:01:33;18.00;99.90
23079;DHT22;11707;50.830;4.364;2023-07-28T05:03:58;18.00;99.90
23079;DHT22;11707;50.830;4.364;2023-07-28T05:06:24;17.90;99.90
23079;DHT22;11707;50.830;4.364;2023-07-28T05:08:49;17.80;99.90
23079;DHT22;11707;50.830;4.364;2023-07-28T05:11:15;17.80;99.90
23079;DHT22;11707;50.830;4.364;2023-07-28T05:13:41;17.80;99.90
23079;DHT22;11707;50.830;4.364;2023-07-28T05:16:06;17.80;99.90
23079;DHT22;11707;50.830;4.364;2023-07-28T05:18:32;17.80;99.90
23079;DHT22;11707;50.830;4.364;2023-07-28T05:20:58;17.80;99.90
23079;DHT22;11707;50.830;4.364;2023-07-28T05:23:23;17.80;99.90
23079;DHT22;11707;50.830;4.364;2023-07-28T05:25:49;17.90;99.90
23079;DHT22;11707;50.830;4.364;2023-07-28T05:28:14;18.00;99.90
23079;DHT22;11707;50.830;4.364;2023-07-28T05:30:40;18.00;99.90
23079;DHT22;11707;50.830;4.364;2023-07-28T05:33:08;18.00;99.90
23079;DHT22;11707;50.830;4.364;2023-07-28T05:35:36;18.00;99.90
23079;DHT22;11707;50.830;4.364;2023-07-28T05:38:01;18.10;99.90
23079;DHT22;11707;50.830;4.364;2023-07-28T05:40:27;18.10;99.90
23079;DHT22;11707;50.830;4.364;2023-07-28T05:42:53;18.00;99.90
23079;DHT22;11707;50.830;4.364;2023-07-28T05:45:18;18.10;99.90
23079;DHT22;11707;50.830;4.364;2023-07-28T05:47:44;18.20;99.90
23079;DHT22;11707;50.830;4.364;2023-07-28T05:50:11;18.10;99.90
23079;DHT22;11707;50.830;4.364;2023-07-28T05:52:36;18.10;99.90
23079;DHT22;11707;50.830;4.364;2023-07-28T05:55:02;18.00;99.90
23079;DHT22;11707;50.830;4.364;2023-07-28T05:57:28;18.00;99.90
23079;DHT22;11707;50.830;4.364;2023-07-28T05:59:53;18.10;99.90
23079;DHT22;11707;50.830;4.364;2023-07-28T06:02:19;18.10;99.90
23079;DHT22;11707;50.830;4.364;2023-07-28T06:04:49;18.10;99.90
23079;DHT22;11707;50.830;4.364;2023-07-28T06:07:15;18.10;99.90
23079;DHT22;11707;50.830;4.364;2023-07-28T06:09:40;18.10;99.90
23079;DHT22;11707;50.830;4.364;2023-07-28T06:12:06;18.10;99.90
23079;DHT22;11707;50.830;4.364;2023-07-28T06:14:32;18.10;99.90
23079;DHT22;11707;50.830;4.364;2023-07-28T06:16:58;18.10;99.90
23079;DHT22;11707;50.830;4.364;2023-07-28T06:19:26;18.20;99.90
23079;DHT22;11707;50.830;4.364;2023-07-28T06:21:52;18.10;99.90
23079;DHT22;11707;50.830;4.364;2023-07-28T06:24:18;18.00;99.90
23079;DHT22;11707;50.830;4.364;2023-07-28T06:26:44;18.10;99.90
23079;DHT22;11707;50.830;4.364;2023-07-28T06:29:10;18.10;99.90
23079;DHT22;11707;50.830;4.364;2023-07-28T06:31:36;18.20;99.90
23079;DHT22;11707;50.830;4.364;2023-07-28T06:34:01;18.20;99.90
23079;DHT22;11707;50.830;4.364;2023-07-28T06:36:27;18.30;99.90
23079;DHT22;11707;50.830;4.364;2023-07-28T06:38:53;18.50;99.90
23079;DHT22;11707;50.830;4.364;2023-07-28T06:41:21;18.40;99.90
23079;DHT22;11707;50.830;4.364;2023-07-28T06:43:46;18.40;99.90
23079;DHT22;11707;50.830;4.364;2023-07-28T06:46:14;18.40;99.90
23079;DHT22;11707;50.830;4.364;2023-07-28T06:48:42;18.40;99.90
23079;DHT22;11707;50.830;4.364;2023-07-28T06:51:10;18.40;99.90
23079;DHT22;11707;50.830;4.364;2023-07-28T06:53:36;18.40;99.90
23079;DHT22;11707;50.830;4.364;2023-07-28T06:56:01;18.40;99.90
23079;DHT22;11707;50.830;4.364;2023-07-28T06:58:27;18.30;99.90
23079;DHT22;11707;50.830;4.364;2023-07-28T07:00:52;18.10;99.90
23079;DHT22;11707;50.830;4.364;2023-07-28T07:03:21;18.10;99.90
23079;DHT22;11707;50.830;4.364;2023-07-28T07:05:47;18.10;99.90
23079;DHT22;11707;50.830;4.364;2023-07-28T07:08:12;18.10;99.90
23079;DHT22;11707;50.830;4.364;2023-07-28T07:10:38;18.00;99.90
23079;DHT22;11707;50.830;4.364;2023-07-28T07:13:04;18.00;99.90
23079;DHT22;11707;50.830;4.364;2023-07-28T07:15:29;18.00;99.90
23079;DHT22;11707;50.830;4.364;2023-07-28T07:17:57;18.10;99.90
23079;DHT22;11707;50.830;4.364;2023-07-28T07:20:23;18.10;99.90
23079;DHT22;11707;50.830;4.364;2023-07-28T07:22:48;18.20;99.90
23079;DHT22;11707;50.830;4.364;2023-07-28T07:25:14;18.40;99.90
23079;DHT22;11707;50.830;4.364;2023-07-28T07:27:40;18.40;99.90
23079;DHT22;11707;50.830;4.364;2023-07-28T07:30:06;18.50;99.90
23079;DHT22;11707;50.830;4.364;2023-07-28T07:32:33;18.50;99.90
23079;DHT22;11707;50.830;4.364;2023-07-28T07:34:59;18.50;99.90
23079;DHT22;11707;50.830;4.364;2023-07-28T07:37:25;18.40;99.90
23079;DHT22;11707;50.830;4.364;2023-07-28T07:39:50;18.30;99.90
23079;DHT22;11707;50.830;4.364;2023-07-28T07:42:16;18.40;99.90
23079;DHT22;11707;50.830;4.364;2023-07-28T07:44:42;18.40;99.90
23079;DHT22;11707;50.830;4.364;2023-07-28T07:47:15;18.40;99.90
23079;DHT22;11707;50.830;4.364;2023-07-28T07:49:41;18.40;99.90
23079;DHT22;11707;50.830;4.364;2023-07-28T07:52:09;18.40;99.90
23079;DHT22;11707;50.830;4.364;2023-07-28T07:54:35;18.60;99.90
23079;DHT22;11707;50.830;4.364;2023-07-28T07:57:04;18.50;99.90
23079;DHT22;11707;50.830;4.364;2023-07-28T07:59:30;18.70;99.90
23079;DHT22;11707;50.830;4.364;2023-07-28T08:02:00;18.80;99.90
23079;DHT22;11707;50.830;4.364;2023-07-28T08:04:27;18.90;99.90
23079;DHT22;11707;50.830;4.364;2023-07-28T08:06:53;18.90;99.90
23079;DHT22;11707;50.830;4.364;2023-07-28T08:09:19;19.10;99.90
23079;DHT22;11707;50.830;4.364;2023-07-28T08:11:45;19.10;99.90
23079;DHT22;11707;50.830;4.364;2023-07-28T08:14:13;19.20;99.90
23079;DHT22;11707;50.830;4.364;2023-07-28T08:16:39;19.10;99.90
23079;DHT22;11707;50.830;4.364;2023-07-28T08:19:05;19.10;99.90
23079;DHT22;11707;50.830;4.364;2023-07-28T08:21:30;19.20;99.90
23079;DHT22;11707;50.830;4.364;2023-07-28T08:24:02;19.20;99.90
23079;DHT22;11707;50.830;4.364;2023-07-28T08:26:29;19.20;99.90
23079;DHT22;11707;50.830;4.364;2023-07-28T08:28:55;19.20;99.90
23079;DHT22;11707;50.830;4.364;2023-07-28T08:31:21;19.20;99.90
23079;DHT22;11707;50.830;4.364;2023-07-28T08:33:46;19.10;99.90
23079;DHT22;11707;50.830;4.364;2023-07-28T08:36:14;19.00;99.90
23079;DHT22;11707;50.830;4.364;2023-07-28T08:38:40;19.10;99.90
23079;DHT22;11707;50.830;4.364;2023-07-28T08:41:06;18.90;99.90
23079;DHT22;11707;50.830;4.364;2023-07-28T08:43:32;19.00;99.90
23079;DHT22;11707;50.830;4.364;2023-07-28T08:45:58;19.00;99.90
23079;DHT22;11707;50.830;4.364;2023-07-28T08:48:26;19.10;99.90
23079;DHT22;11707;50.830;4.364;2023-07-28T08:50:53;19.20;99.90
23079;DHT22;11707;50.830;4.364;2023-07-28T08:53:21;19.20;99.90
23079;DHT22;11707;50.830;4.364;2023-07-28T08:55:47;19.10;99.90
23079;DHT22;11707;50.830;4.364;2023-07-28T08:58:21;19.20;99.90
23079;DHT22;11707;50.830;4.364;2023-07-28T09:00:51;19.30;99.90
23079;DHT22;11707;50.830;4.364;2023-07-28T09:03:20;19.40;99.90
23079;DHT22;11707;50.830;4.364;2023-07-28T09:05:46;19.50;99.90
23079;DHT22;11707;50.830;4.364;2023-07-28T09:08:13;19.50;99.90
23079;DHT22;11707;50.830;4.364;2023-07-28T09:10:46;19.50;99.90
23079;DHT22;11707;50.830;4.364;2023-07-28T09:13:15;19.70;99.90
23079;DHT22;11707;50.830;4.364;2023-07-28T09:15:40;19.70;99.90
23079;DHT22;11707;50.830;4.364;2023-07-28T09:18:15;19.80;99.90
23079;DHT22;11707;50.830;4.364;2023-07-28T09:20:41;20.00;99.90
23079;DHT22;11707;50.830;4.364;2023-07-28T09:23:08;20.10;99.90
23079;DHT22;11707;50.830;4.364;2023-07-28T09:25:40;20.00;99.90
23079;DHT22;11707;50.830;4.364;2023-07-28T09:28:06;20.00;99.90
23079;DHT22;11707;50.830;4.364;2023-07-28T09:30:48;20.10;99.90
23079;DHT22;11707;50.830;4.364;2023-07-28T09:33:30;19.80;99.90
23079;DHT22;11707;50.830;4.364;2023-07-28T09:35:56;19.60;99.90
23079;DHT22;11707;50.830;4.364;2023-07-28T09:38:24;19.50;99.90
23079;DHT22;11707;50.830;4.364;2023-07-28T09:40:53;19.50;99.90
23079;DHT22;11707;50.830;4.364;2023-07-28T09:43:19;19.60;99.90
23079;DHT22;11707;50.830;4.364;2023-07-28T09:45:50;19.70;99.90
23079;DHT22;11707;50.830;4.364;2023-07-28T09:48:17;19.80;99.90
23079;DHT22;11707;50.830;4.364;2023-07-28T09:50:45;19.80;99.90
23079;DHT22;11707;50.830;4.364;2023-07-28T09:53:12;19.80;99.90
23079;DHT22;11707;50.830;4.364;2023-07-28T09:55:39;19.90;99.90
23079;DHT22;11707;50.830;4.364;2023-07-28T09:58:10;19.90;99.90
23079;DHT22;11707;50.830;4.364;2023-07-28T10:00:37;20.20;99.90
23079;DHT22;11707;50.830;4.364;2023-07-28T10:03:04;20.20;99.90
23079;DHT22;11707;50.830;4.364;2023-07-28T10:05:30;20.40;99.90
23079;DHT22;11707;50.830;4.364;2023-07-28T10:07:56;20.50;99.90
23079;DHT22;11707;50.830;4.364;2023-07-28T10:10:22;20.50;99.90
23079;DHT22;11707;50.830;4.364;2023-07-28T10:12:52;20.30;99.90
23079;DHT22;11707;50.830;4.364;2023-07-28T10:15:19;20.30;99.90
23079;DHT22;11707;50.830;4.364;2023-07-28T10:17:51;20.40;99.90
23079;DHT22;11707;50.830;4.364;2023-07-28T10:20:40;20.40;99.90
23079;DHT22;11707;50.830;4.364;2023-07-28T10:23:11;20.40;99.90
23079;DHT22;11707;50.830;4.364;2023-07-28T10:25:37;20.40;99.90
23079;DHT22;11707;50.830;4.364;2023-07-28T10:28:05;20.50;99.90
23079;DHT22;11707;50.830;4.364;2023-07-28T10:30:36;20.40;99.90
23079;DHT22;11707;50.830;4.364;2023-07-28T10:33:05;20.30;99.90
23079;DHT22;11707;50.830;4.364;2023-07-28T10:35:31;20.40;99.90
23079;DHT22;11707;50.830;4.364;2023-07-28T10:38:31;20.40;99.90
23079;DHT22;11707;50.830;4.364;2023-07-28T10:41:17;20.60;99.90
23079;DHT22;11707;50.830;4.364;2023-07-28T10:43:45;20.70;99.90
23079;DHT22;11707;50.830;4.364;2023-07-28T10:46:14;20.70;99.90
23079;DHT22;11707;50.830;4.364;2023-07-28T10:48:46;20.90;99.90
23079;DHT22;11707;50.830;4.364;2023-07-28T10:51:20;21.20;99.90
23079;DHT22;11707;50.830;4.364;2023-07-28T10:53:50;21.10;99.90
23079;DHT22;11707;50.830;4.364;2023-07-28T10:56:16;21.00;99.90
23079;DHT22;11707;50.830;4.364;2023-07-28T10:58:41;20.80;99.90
23079;DHT22;11707;50.830;4.364;2023-07-28T11:01:07;20.80;99.90
23079;DHT22;11707;50.830;4.364;2023-07-28T11:03:35;20.70;99.90
23079;DHT22;11707;50.830;4.364;2023-07-28T11:06:04;20.70;99.90
23079;DHT22;11707;50.830;4.364;2023-07-28T11:08:32;20.90;99.90
23079;DHT22;11707;50.830;4.364;2023-07-28T11:10:57;20.90;99.90
23079;DHT22;11707;50.830;4.364;2023-07-28T11:13:23;21.00;99.90
23079;DHT22;11707;50.830;4.364;2023-07-28T11:15:50;21.10;99.90
23079;DHT22;11707;50.830;4.364;2023-07-28T11:18:16;21.20;99.90
23079;DHT22;11707;50.830;4.364;2023-07-28T11:20:42;21.10;99.90
23079;DHT22;11707;50.830;4.364;2023-07-28T11:23:08;21.10;99.90
23079;DHT22;11707;50.830;4.364;2023-07-28T11:25:37;21.40;99.90
23079;DHT22;11707;50.830;4.364;2023-07-28T11:28:06;21.60;99.90
23079;DHT22;11707;50.830;4.364;2023-07-28T11:30:36;21.50;99.90
23079;DHT22;11707;50.830;4.364;2023-07-28T11:33:03;21.50;99.90
23079;DHT22;11707;50.830;4.364;2023-07-28T11:35:28;21.50;99.90
23079;DHT22;11707;50.830;4.364;2023-07-28T11:37:55;21.80;99.90
23079;DHT22;11707;50.830;4.364;2023-07-28T11:40:21;22.00;99.90
23079;DHT22;11707;50.830;4.364;2023-07-28T11:42:50;22.20;98.40
23079;DHT22;11707;50.830;4.364;2023-07-28T11:45:18;22.20;95.60
23079;DHT22;11707;50.830;4.364;2023-07-28T11:48:04;22.20;95.40
23079;DHT22;11707;50.830;4.364;2023-07-28T11:50:35;21.90;97.80
23079;DHT22;11707;50.830;4.364;2023-07-28T11:53:00;21.80;97.80
23079;DHT22;11707;50.830;4.364;2023-07-28T11:55:26;21.80;98.80
23079;DHT22;11707;50.830;4.364;2023-07-28T11:57:53;21.70;99.40
23079;DHT22;11707;50.830;4.364;2023-07-28T12:00:22;21.90;99.70
23079;DHT22;11707;50.830;4.364;2023-07-28T12:03:02;22.00;96.50
23079;DHT22;11707;50.830;4.364;2023-07-28T12:05:29;22.20;96.10
23079;DHT22;11707;50.830;4.364;2023-07-28T12:07:57;22.20;92.60
23079;DHT22;11707;50.830;4.364;2023-07-28T12:10:23;22.20;92.00
23079;DHT22;11707;50.830;4.364;2023-07-28T12:12:49;22.40;92.10
23079;DHT22;11707;50.830;4.364;2023-07-28T12:18:05;22.60;76.50
23079;DHT22;11707;50.830;4.364;2023-07-28T12:23:08;22.60;77.00
23079;DHT22;11707;50.830;4.364;2023-07-28T12:25:35;22.80;75.10
23079;DHT22;11707;50.830;4.364;2023-07-28T12:28:12;22.90;67.60
23079;DHT22;11707;50.830;4.364;2023-07-28T12:30:38;22.80;61.40
23079;DHT22;11707;50.830;4.364;2023-07-28T12:33:05;23.00;59.40
23079;DHT22;11707;50.830;4.364;2023-07-28T12:35:39;23.20;55.40
23079;DHT22;11707;50.830;4.364;2023-07-28T12:38:07;23.40;51.60
23079;DHT22;11707;50.830;4.364;2023-07-28T12:40:34;23.50;52.80
23079;DHT22;11707;50.830;4.364;2023-07-28T12:43:02;23.50;48.00
23079;DHT22;11707;50.830;4.364;2023-07-28T12:45:28;23.60;46.00
23079;DHT22;11707;50.830;4.364;2023-07-28T12:47:54;23.40;47.70
23079;DHT22;11707;50.830;4.364;2023-07-28T12:50:23;23.20;51.00
23079;DHT22;11707;50.830;4.364;2023-07-28T12:52:50;23.30;41.80
23079;DHT22;11707;50.830;4.364;2023-07-28T12:55:17;23.70;29.70
23079;DHT22;11707;50.830;4.364;2023-07-28T12:57:43;24.60;7.90
23079;DHT22;11707;50.830;4.364;2023-07-28T13:00:09;25.20;1.00
23079;DHT22;11707;50.830;4.364;2023-07-28T13:02:40;26.10;99.90
23079;DHT22;11707;50.830;4.364;2023-07-28T13:05:06;26.60;1.00
23079;DHT22;11707;50.830;4.364;2023-07-28T13:07:32;26.00;99.90
23079;DHT22;11707;50.830;4.364;2023-07-28T13:09:58;25.00;99.90
23079;DHT22;11707;50.830;4.364;2023-07-28T13:12:23;24.50;1.00
23079;DHT22;11707;50.830;4.364;2023-07-28T13:14:49;23.90;1.00
23079;DHT22;11707;50.830;4.364;2023-07-28T13:17:17;23.50;1.00
23079;DHT22;11707;50.830;4.364;2023-07-28T13:19:43;23.40;1.00
23079;DHT22;11707;50.830;4.364;2023-07-28T13:22:09;23.20;1.00
23079;DHT22;11707;50.830;4.364;2023-07-28T13:24:34;23.00;1.00
23079;DHT22;11707;50.830;4.364;2023-07-28T13:27:00;22.90;1.00
23079;DHT22;11707;50.830;4.364;2023-07-28T13:29:26;22.70;1.00
23079;DHT22;11707;50.830;4.364;2023-07-28T13:31:58;22.70;1.00
23079;DHT22;11707;50.830;4.364;2023-07-28T13:34:24;22.80;1.00
23079;DHT22;11707;50.830;4.364;2023-07-28T13:36:50;23.00;1.00
23079;DHT22;11707;50.830;4.364;2023-07-28T13:39:15;23.40;1.00
23079;DHT22;11707;50.830;4.364;2023-07-28T13:41:43;24.10;1.00
23079;DHT22;11707;50.830;4.364;2023-07-28T13:44:15;25.60;99.90
23079;DHT22;11707;50.830;4.364;2023-07-28T13:46:43;26.80;1.00
23079;DHT22;11707;50.830;4.364;2023-07-28T13:49:09;28.00;99.90
23079;DHT22;11707;50.830;4.364;2023-07-28T13:51:35;27.80;99.90
23079;DHT22;11707;50.830;4.364;2023-07-28T13:54:01;26.90;99.90
23079;DHT22;11707;50.830;4.364;2023-07-28T13:56:26;26.40;99.90
23079;DHT22;11707;50.830;4.364;2023-07-28T13:58:53;26.20;99.90
23079;DHT22;11707;50.830;4.364;2023-07-28T14:01:19;25.50;99.90
23079;DHT22;11707;50.830;4.364;2023-07-28T14:03:44;25.00;99.90
23079;DHT22;11707;50.830;4.364;2023-07-28T14:06:11;24.50;99.90
23079;DHT22;11707;50.830;4.364;2023-07-28T14:08:37;24.00;1.00
23079;DHT22;11707;50.830;4.364;2023-07-28T14:11:02;23.70;1.00
23079;DHT22;11707;50.830;4.364;2023-07-28T14:13:28;23.50;1.00
23079;DHT22;11707;50.830;4.364;2023-07-28T14:15:56;23.30;1.00
23079;DHT22;11707;50.830;4.364;2023-07-28T14:18:21;23.10;1.00
23079;DHT22;11707;50.830;4.364;2023-07-28T14:24:05;23.10;1.00
23079;DHT22;11707;50.830;4.364;2023-07-28T14:26:31;23.30;1.00
23079;DHT22;11707;50.830;4.364;2023-07-28T14:28:57;23.40;1.00
23079;DHT22;11707;50.830;4.364;2023-07-28T14:31:22;23.50;1.00
23079;DHT22;11707;50.830;4.364;2023-07-28T14:33:50;23.90;1.00
23079;DHT22;11707;50.830;4.364;2023-07-28T14:42:49;26.00;99.90
23079;DHT22;11707;50.830;4.364;2023-07-28T14:45:15;26.90;99.90
23079;DHT22;11707;50.830;4.364;2023-07-28T14:47:41;28.10;1.00
23079;DHT22;11707;50.830;4.364;2023-07-28T14:50:07;28.30;1.00
23079;DHT22;11707;50.830;4.364;2023-07-28T14:52:32;28.20;1.00
23079;DHT22;11707;50.830;4.364;2023-07-28T14:54:58;28.80;1.00
23079;DHT22;11707;50.830;4.364;2023-07-28T14:57:23;28.40;2.50
23079;DHT22;11707;50.830;4.364;2023-07-28T14:59:49;29.30;2.40
23079;DHT22;11707;50.830;4.364;2023-07-28T15:02:15;28.60;99.90
23079;DHT22;11707;50.830;4.364;2023-07-28T15:04:41;28.60;99.90
23079;DHT22;11707;50.830;4.364;2023-07-28T15:07:09;28.30;99.90
23079;DHT22;11707;50.830;4.364;2023-07-28T15:09:35;27.60;99.90
23079;DHT22;11707;50.830;4.364;2023-07-28T15:12:00;27.60;1.00
23079;DHT22;11707;50.830;4.364;2023-07-28T15:14:29;26.70;99.90
23079;DHT22;11707;50.830;4.364;2023-07-28T15:16:54;26.20;99.90
23079;DHT22;11707;50.830;4.364;2023-07-28T15:19:22;26.20;99.90
23079;DHT22;11707;50.830;4.364;2023-07-28T15:21:48;27.30;1.00
23079;DHT22;11707;50.830;4.364;2023-07-28T15:24:14;28.40;1.00
23079;DHT22;11707;50.830;4.364;2023-07-28T15:26:39;28.10;51.10
23079;DHT22;11707;50.830;4.364;2023-07-28T15:29:05;28.00;99.90
23079;DHT22;11707;50.830;4.364;2023-07-28T15:31:32;27.10;99.90
23079;DHT22;11707;50.830;4.364;2023-07-28T15:34:02;26.60;99.90
23079;DHT22;11707;50.830;4.364;2023-07-28T15:36:28;25.70;99.90
23079;DHT22;11707;50.830;4.364;2023-07-28T15:38:54;25.70;99.90
23079;DHT22;11707;50.830;4.364;2023-07-28T15:41:20;25.80;99.90
23079;DHT22;11707;50.830;4.364;2023-07-28T15:43:45;25.50;99.90
23079;DHT22;11707;50.830;4.364;2023-07-28T15:46:11;25.20;99.90
23079;DHT22;11707;50.830;4.364;2023-07-28T15:48:39;25.20;99.90
23079;DHT22;11707;50.830;4.364;2023-07-28T15:51:05;25.10;99.90